Silver Cliff, Wisconsin
Current Conditions -  °F | °C
As of 4:54 PM on Monday 22 Dec 2014 (Local Time) from KIMT Reporting Station
Haze Haze  
Wind Chill: 26°   Ceiling: 1100
Heat Index: 33°   Visibility: 6mi
Dew Point: 29°   Wind: 8mph
Humidity: 85%   Direction: 110°ESE
Pressure: 29.82"   Gusts: NA
Location:  45.4596°N, 88.2404°W
Report Text: KIMT 222254Z AUTO 11007KT 6SM BR OVC011 01/M02 A2982 RMK AO2 SLP112 T00061017
Loading
Personal Weather Stations






























Interactive Weather Map New forecast layout! Learn more

10-Day Weather Forecast

Advertisements
Track Severe Weather on mobile